createdAt,value
2023-09-20T00:02:00.618Z,68.48
2023-09-20T00:05:29.165Z,68.49
2023-09-20T00:08:38.162Z,68.53
2023-09-20T00:11:10.234Z,68.47
2023-09-20T00:13:38.288Z,68.28
2023-09-20T00:17:08.200Z,68.04
2023-09-20T00:20:17.836Z,68.28
2023-09-20T00:22:46.577Z,68.13
2023-09-20T00:25:16.224Z,68.13
2023-09-20T00:27:47.511Z,68.05
2023-09-20T00:30:16.874Z,67.86
2023-09-20T00:32:45.554Z,67.64
2023-09-20T00:36:14.803Z,67.55
2023-09-20T00:40:43.399Z,68.12
2023-09-20T00:45:12.261Z,68.19
2023-09-20T00:48:41.680Z,68.34
2023-09-20T00:51:10.746Z,68.06
2023-09-20T00:53:39.804Z,67.72
2023-09-20T00:56:11.188Z,67.82
2023-09-20T00:59:40.058Z,67.81
2023-09-20T01:02:54.161Z,68.12
2023-09-20T01:05:27.222Z,68.03
2023-09-20T01:08:46.996Z,67.92
2023-09-20T01:12:16.261Z,68.00
2023-09-20T01:15:05.667Z,68.07
2023-09-20T01:18:54.450Z,68.00
2023-09-20T01:23:23.655Z,68.37
2023-09-20T01:25:52.233Z,68.43
2023-09-20T01:29:04.079Z,68.38
2023-09-20T01:32:53.281Z,68.29
2023-09-20T01:37:05.536Z,68.57
2023-09-20T01:40:36.781Z,68.56
2023-09-20T01:43:27.242Z,68.69
2023-09-20T01:45:56.161Z,68.67
2023-09-20T01:49:25.114Z,68.63
2023-09-20T01:52:08.061Z,68.68
2023-09-20T01:54:36.639Z,68.88
2023-09-20T01:57:07.213Z,68.76
2023-09-20T01:59:35.286Z,68.80
2023-09-20T02:02:04.708Z,68.73
2023-09-20T02:04:33.302Z,68.70
2023-09-20T02:07:01.265Z,68.58
2023-09-20T02:10:39.122Z,68.77
2023-09-20T02:13:09.334Z,68.97
2023-09-20T02:15:37.554Z,68.99
2023-09-20T02:19:06.509Z,68.81
2023-09-20T02:22:35.885Z,68.88
2023-09-20T02:25:10.161Z,69.18
2023-09-20T02:27:44.044Z,69.09
2023-09-20T02:30:16.429Z,68.97
2023-09-20T02:33:45.848Z,68.77
2023-09-20T02:36:18.135Z,68.78
2023-09-20T02:38:46.292Z,68.75
2023-09-20T02:42:15.000Z,68.55
2023-09-20T02:45:46.743Z,68.77
2023-09-20T02:48:15.711Z,68.90
2023-09-20T02:50:46.234Z,68.54
2023-09-20T02:54:14.941Z,68.46
2023-09-20T02:56:44.755Z,68.61
2023-09-20T03:00:13.656Z,68.67
2023-09-20T03:04:04.809Z,68.78
2023-09-20T03:07:55.294Z,69.09
2023-09-20T03:10:46.494Z,68.92
2023-09-20T03:13:18.507Z,68.52
2023-09-20T03:15:50.318Z,68.38
2023-09-20T03:18:24.289Z,68.40
2023-09-20T03:21:06.788Z,68.60
2023-09-20T03:23:35.258Z,68.70
2023-09-20T03:26:05.849Z,68.99
2023-09-20T03:28:37.441Z,69.00
2023-09-20T03:31:11.737Z,69.10
2023-09-20T03:34:40.976Z,69.38
2023-09-20T03:39:10.191Z,70.02
2023-09-20T03:43:19.209Z,70.40
2023-09-20T03:45:52.703Z,70.15
2023-09-20T03:48:21.870Z,69.86
2023-09-20T03:50:50.989Z,69.61
2023-09-20T03:54:20.966Z,69.64
2023-09-20T03:58:49.476Z,69.90
2023-09-20T04:02:57.941Z,70.09
2023-09-20T04:07:26.669Z,70.24
2023-09-20T04:09:54.718Z,69.81
2023-09-20T04:12:24.598Z,69.46
2023-09-20T04:15:53.551Z,69.19
2023-09-20T04:20:22.368Z,69.27
2023-09-20T04:23:46.493Z,69.59
2023-09-20T04:26:54.537Z,69.50
2023-09-20T04:30:05.005Z,69.29
2023-09-20T04:32:34.360Z,69.22
2023-09-20T04:36:04.388Z,69.21
2023-09-20T04:39:32.701Z,69.20
2023-09-20T04:42:00.818Z,68.89
2023-09-20T04:44:29.065Z,68.58
2023-09-20T04:47:57.975Z,68.40
2023-09-20T04:52:06.798Z,68.73
2023-09-20T04:55:57.373Z,68.88
2023-09-20T04:58:34.479Z,68.81
2023-09-20T05:01:02.474Z,68.54
2023-09-20T05:03:30.933Z,68.50
2023-09-20T05:05:59.338Z,68.31
2023-09-20T05:08:27.861Z,68.43
2023-09-20T05:10:57.044Z,68.40
2023-09-20T05:13:25.748Z,68.48
2023-09-20T05:15:53.948Z,68.68
2023-09-20T05:18:22.719Z,68.94
2023-09-20T05:20:50.968Z,68.83
2023-09-20T05:23:19.184Z,68.87
2023-09-20T05:25:49.663Z,68.74
2023-09-20T05:28:18.025Z,68.63
2023-09-20T05:30:49.988Z,68.64
2023-09-20T05:33:18.415Z,68.61
2023-09-20T05:35:48.598Z,68.47
2023-09-20T05:38:37.716Z,68.34
2023-09-20T05:41:05.974Z,68.20
2023-09-20T05:43:38.491Z,68.12
2023-09-20T05:46:08.869Z,68.17
2023-09-20T05:48:37.535Z,68.11
2023-09-20T05:51:05.679Z,68.18
2023-09-20T05:53:35.016Z,68.17
2023-09-20T05:56:09.496Z,68.10
2023-09-20T05:58:39.930Z,68.07
2023-09-20T06:01:11.717Z,67.90
2023-09-20T06:03:41.474Z,67.86
2023-09-20T06:06:09.620Z,67.76
2023-09-20T06:08:38.045Z,67.62
2023-09-20T06:11:06.203Z,67.25
2023-09-20T06:13:37.470Z,67.08
2023-09-20T06:16:10.004Z,66.85
2023-09-20T06:19:06.951Z,66.63
2023-09-20T06:21:39.472Z,66.16
2023-09-20T06:24:14.418Z,65.66
2023-09-20T06:26:42.497Z,65.63
2023-09-20T06:29:30.521Z,65.29
2023-09-20T06:31:58.621Z,64.93
2023-09-20T06:34:27.723Z,64.66
2023-09-20T06:36:55.874Z,64.43
2023-09-20T06:40:45.924Z,64.54
2023-09-20T06:43:14.450Z,64.32
2023-09-20T06:45:52.577Z,64.21
2023-09-20T06:48:28.442Z,63.83
2023-09-20T06:50:58.225Z,63.58
2023-09-20T06:53:26.719Z,63.35
2023-09-20T06:55:56.447Z,62.85
2023-09-20T06:58:46.363Z,61.92
2023-09-20T07:01:15.157Z,60.75
2023-09-20T07:03:43.454Z,57.86
2023-09-20T07:07:51.805Z,56.21
2023-09-20T07:12:00.848Z,55.61
2023-09-20T07:15:31.529Z,52.59
2023-09-20T07:18:00.512Z,51.05
2023-09-20T07:20:55.981Z,50.77
2023-09-20T07:23:25.323Z,49.74
2023-09-20T07:25:53.763Z,49.52
2023-09-20T07:28:23.899Z,48.87
2023-09-20T07:31:52.396Z,48.45
2023-09-20T07:35:43.842Z,47.56
2023-09-20T07:38:52.062Z,47.00
2023-09-20T07:42:23.052Z,45.95
2023-09-20T07:46:35.820Z,45.46
2023-09-20T07:49:10.618Z,44.73
2023-09-20T07:51:38.722Z,44.29
2023-09-20T07:54:10.794Z,43.67
2023-09-20T07:56:43.317Z,42.92
2023-09-20T07:59:14.781Z,42.98
2023-09-20T08:01:43.125Z,42.30
2023-09-20T08:04:12.241Z,41.13
2023-09-20T08:06:41.783Z,41.01
2023-09-20T08:09:12.478Z,41.39
2023-09-20T08:12:41.186Z,41.02
2023-09-20T08:15:29.873Z,40.71
2023-09-20T08:18:16.724Z,40.38
2023-09-20T08:20:45.048Z,39.70
2023-09-20T08:24:12.041Z,38.91
2023-09-20T08:28:39.284Z,38.27
2023-09-20T08:33:06.527Z,37.74
2023-09-20T08:37:33.538Z,36.98
2023-09-20T08:41:49.153Z,35.11
2023-09-20T08:46:15.582Z,35.51
2023-09-20T08:49:02.864Z,35.77
2023-09-20T08:52:14.363Z,35.11
2023-09-20T08:55:21.713Z,34.79
2023-09-20T08:58:09.914Z,33.64
2023-09-20T09:00:41.776Z,33.68
2023-09-20T09:03:10.967Z,32.91
2023-09-20T09:05:41.806Z,32.77
2023-09-20T09:08:11.683Z,32.81
2023-09-20T09:10:39.864Z,32.21
2023-09-20T09:14:08.630Z,32.00
2023-09-20T09:17:05.076Z,32.17
2023-09-20T09:19:33.513Z,31.54
2023-09-20T09:22:22.250Z,30.70
2023-09-20T09:24:50.427Z,31.08
2023-09-20T09:27:19.598Z,30.60
2023-09-20T09:29:48.382Z,29.75
2023-09-20T09:32:16.594Z,29.80
2023-09-20T09:34:45.893Z,29.53
2023-09-20T09:37:17.024Z,28.78
2023-09-20T09:40:01.465Z,28.68
2023-09-20T09:42:29.876Z,28.16
2023-09-20T09:45:00.067Z,27.63
2023-09-20T09:47:31.449Z,27.81
2023-09-20T09:50:02.627Z,27.36
2023-09-20T09:53:31.656Z,27.12
2023-09-20T09:56:26.316Z,27.36
2023-09-20T09:58:54.407Z,27.23
2023-09-20T10:01:24.085Z,26.33
2023-09-20T10:04:52.981Z,26.56
2023-09-20T10:07:28.799Z,26.63
2023-09-20T10:10:10.230Z,26.67
2023-09-20T10:12:39.770Z,26.61
2023-09-20T10:15:08.837Z,27.12
2023-09-20T10:17:52.656Z,27.33
2023-09-20T10:20:21.029Z,27.13
2023-09-20T10:22:49.211Z,26.82
2023-09-20T10:25:38.312Z,26.52
2023-09-20T10:28:10.676Z,26.36
2023-09-20T10:30:57.626Z,25.99
2023-09-20T10:34:29.705Z,26.12
2023-09-20T10:37:12.433Z,26.24
2023-09-20T10:39:43.892Z,26.22
2023-09-20T10:42:14.534Z,26.18
2023-09-20T10:44:44.759Z,26.23
2023-09-20T10:47:15.929Z,25.64
2023-09-20T10:49:48.945Z,25.64
2023-09-20T10:52:59.723Z,25.71
2023-09-20T10:55:38.167Z,25.63
2023-09-20T10:58:07.050Z,25.37
2023-09-20T11:00:49.056Z,25.51
2023-09-20T11:03:20.165Z,26.25
2023-09-20T11:05:51.784Z,26.56
2023-09-20T11:08:26.138Z,26.59
2023-09-20T11:11:08.001Z,26.13
2023-09-20T11:13:36.692Z,26.16
2023-09-20T11:16:06.410Z,26.09
2023-09-20T11:18:35.752Z,25.49
2023-09-20T11:21:05.739Z,25.38
2023-09-20T11:23:34.591Z,24.66
2023-09-20T11:26:06.124Z,25.15
2023-09-20T11:28:36.025Z,25.45
2023-09-20T11:31:04.445Z,26.52
2023-09-20T11:33:32.499Z,26.23
2023-09-20T11:36:01.020Z,26.20
2023-09-20T11:38:29.432Z,25.79
2023-09-20T11:40:58.069Z,26.19
2023-09-20T11:43:29.944Z,25.94
2023-09-20T11:46:02.041Z,25.74
2023-09-20T11:48:30.921Z,26.44
2023-09-20T11:50:59.179Z,25.65
2023-09-20T11:53:31.594Z,25.62
2023-09-20T11:56:02.155Z,25.58
2023-09-20T11:58:38.100Z,25.54
2023-09-20T12:01:10.018Z,25.32
2023-09-20T12:03:38.747Z,25.46
2023-09-20T12:06:08.750Z,25.69
2023-09-20T12:08:37.030Z,25.40
2023-09-20T12:11:05.336Z,25.19
2023-09-20T12:13:33.345Z,25.10
2023-09-20T12:16:39.741Z,24.86
2023-09-20T12:19:08.481Z,25.39
2023-09-20T12:21:36.647Z,25.70
2023-09-20T12:24:05.739Z,25.62
2023-09-20T12:26:35.248Z,26.35
2023-09-20T12:29:03.453Z,25.84
2023-09-20T12:31:31.573Z,25.94
2023-09-20T12:34:02.517Z,26.40
2023-09-20T12:36:31.480Z,26.61
2023-09-20T12:39:02.817Z,26.69
2023-09-20T12:41:31.177Z,26.76
2023-09-20T12:43:59.875Z,26.51
2023-09-20T12:47:28.924Z,26.40
2023-09-20T12:51:57.792Z,25.96
2023-09-20T12:56:06.750Z,26.37
2023-09-20T12:58:43.602Z,25.83
2023-09-20T13:01:12.004Z,25.55
2023-09-20T13:03:45.713Z,25.37
2023-09-20T13:06:15.479Z,25.73
2023-09-20T13:08:43.710Z,25.59
2023-09-20T13:11:11.908Z,25.89
2023-09-20T13:13:42.671Z,25.29
2023-09-20T13:16:11.323Z,25.61
2023-09-20T13:19:20.255Z,25.02
2023-09-20T13:21:48.322Z,25.08
2023-09-20T13:24:16.730Z,25.25
2023-09-20T13:26:45.550Z,25.01
2023-09-20T13:30:13.380Z,25.49
2023-09-20T13:32:43.029Z,26.36
2023-09-20T13:35:12.358Z,26.58
2023-09-20T13:37:48.575Z,26.58
2023-09-20T13:40:19.501Z,27.63
2023-09-20T13:42:47.835Z,28.20
2023-09-20T13:45:19.859Z,28.63
2023-09-20T13:47:51.222Z,28.36
2023-09-20T13:50:19.773Z,28.36
2023-09-20T13:52:48.290Z,28.43
2023-09-20T13:55:23.337Z,28.73
2023-09-20T13:57:57.020Z,28.45
2023-09-20T14:00:29.179Z,29.07
2023-09-20T14:02:58.723Z,29.25
2023-09-20T14:05:28.275Z,29.27
2023-09-20T14:07:57.515Z,29.49
2023-09-20T14:10:36.641Z,29.54
2023-09-20T14:13:04.884Z,29.71
2023-09-20T14:15:33.196Z,29.63
2023-09-20T14:18:02.700Z,29.52
2023-09-20T14:20:31.102Z,29.88
2023-09-20T14:22:59.625Z,29.91
2023-09-20T14:25:29.945Z,29.97
2023-09-20T14:27:58.415Z,29.91
2023-09-20T14:31:27.614Z,29.88
2023-09-20T14:35:57.287Z,30.32
2023-09-20T14:40:27.107Z,31.03
2023-09-20T14:43:22.108Z,31.02
2023-09-20T14:45:50.450Z,31.61
2023-09-20T14:48:23.204Z,31.57
2023-09-20T14:50:51.846Z,31.72
2023-09-20T14:53:20.288Z,31.92
2023-09-20T14:55:49.314Z,31.60
2023-09-20T14:58:19.182Z,31.91
2023-09-20T15:00:50.719Z,32.32
2023-09-20T15:03:18.947Z,32.71
2023-09-20T15:05:47.318Z,33.09
2023-09-20T15:08:15.535Z,33.72
2023-09-20T15:10:46.304Z,33.93
2023-09-20T15:13:14.606Z,34.35
2023-09-20T15:15:46.756Z,34.73
2023-09-20T15:18:16.041Z,34.96
2023-09-20T15:21:24.510Z,35.31
2023-09-20T15:23:58.025Z,35.80
2023-09-20T15:26:26.452Z,36.19
2023-09-20T15:28:55.919Z,36.51
2023-09-20T15:31:43.738Z,36.94
2023-09-20T15:34:12.180Z,37.16
2023-09-20T15:37:28.377Z,37.50
2023-09-20T15:39:56.615Z,37.24
2023-09-20T15:42:24.860Z,37.34
2023-09-20T15:44:56.557Z,37.44
2023-09-20T15:47:24.728Z,37.48
2023-09-20T15:50:35.378Z,37.70
2023-09-20T15:53:03.980Z,37.76
2023-09-20T15:55:32.046Z,37.85
2023-09-20T15:58:00.736Z,38.06
2023-09-20T16:00:30.642Z,38.21
2023-09-20T16:02:59.114Z,38.15
2023-09-20T16:05:28.297Z,38.19
2023-09-20T16:07:56.552Z,38.36
2023-09-20T16:10:24.639Z,38.59
2023-09-20T16:12:52.892Z,38.77
2023-09-20T16:15:41.921Z,39.03
2023-09-20T16:18:12.876Z,38.90
2023-09-20T16:20:41.780Z,39.08
2023-09-20T16:23:09.967Z,39.54
2023-09-20T16:25:39.244Z,39.33
2023-09-20T16:28:07.738Z,39.86
2023-09-20T16:31:36.607Z,40.03
2023-09-20T16:34:05.386Z,40.29
2023-09-20T16:36:33.384Z,40.26
2023-09-20T16:39:01.589Z,40.35
2023-09-20T16:41:30.144Z,40.74
2023-09-20T16:43:58.226Z,40.92
2023-09-20T16:46:26.329Z,40.98
2023-09-20T16:48:54.351Z,41.24
2023-09-20T16:51:22.773Z,41.46
2023-09-20T16:53:51.087Z,41.80
2023-09-20T16:56:19.316Z,41.80
2023-09-20T16:58:47.414Z,42.14
2023-09-20T17:01:19.624Z,42.32
2023-09-20T17:03:48.114Z,42.39
2023-09-20T17:06:17.112Z,42.16
2023-09-20T17:08:50.436Z,42.55
2023-09-20T17:11:19.786Z,42.72
2023-09-20T17:14:48.293Z,42.78
2023-09-20T17:17:18.111Z,43.22
2023-09-20T17:19:47.279Z,43.37
2023-09-20T17:22:15.385Z,43.50
2023-09-20T17:25:43.500Z,43.79
2023-09-20T17:28:12.220Z,44.51
2023-09-20T17:30:45.096Z,44.62
2023-09-20T17:33:14.196Z,45.17
2023-09-20T17:35:42.456Z,45.43
2023-09-20T17:38:10.573Z,45.71
2023-09-20T17:40:38.721Z,46.04
2023-09-20T17:43:06.730Z,46.30
2023-09-20T17:45:34.946Z,46.48
2023-09-20T17:49:07.850Z,46.84
2023-09-20T17:51:36.103Z,47.10
2023-09-20T17:54:25.145Z,47.33
2023-09-20T17:56:53.385Z,47.72
2023-09-20T17:59:24.741Z,47.96
2023-09-20T18:01:53.000Z,48.23
2023-09-20T18:04:22.908Z,48.40
2023-09-20T18:06:51.237Z,48.55
2023-09-20T18:09:19.348Z,48.80
2023-09-20T18:11:50.201Z,48.94
2023-09-20T18:14:39.006Z,49.00
2023-09-20T18:17:07.769Z,49.02
2023-09-20T18:19:36.700Z,49.33
2023-09-20T18:22:05.868Z,49.44
2023-09-20T18:25:17.438Z,49.78
2023-09-20T18:28:52.166Z,50.39
2023-09-20T18:32:32.180Z,50.61
2023-09-20T18:35:00.638Z,50.61
2023-09-20T18:37:29.435Z,50.54
2023-09-20T18:39:57.783Z,50.59
2023-09-20T18:42:26.069Z,50.92
2023-09-20T18:44:55.642Z,50.99
2023-09-20T18:47:37.104Z,51.23
2023-09-20T18:50:14.741Z,51.52
2023-09-20T18:52:44.700Z,51.66
2023-09-20T18:55:19.433Z,51.66
2023-09-20T18:57:54.491Z,51.88
2023-09-20T19:00:26.493Z,52.03
2023-09-20T19:02:56.628Z,51.98
2023-09-20T19:05:25.091Z,52.14
2023-09-20T19:07:53.371Z,52.29
2023-09-20T19:10:21.619Z,52.40
2023-09-20T19:12:50.143Z,52.64
2023-09-20T19:15:18.586Z,52.55
2023-09-20T19:17:48.266Z,52.69
2023-09-20T19:20:20.426Z,52.97
2023-09-20T19:22:48.876Z,52.81
2023-09-20T19:25:19.281Z,53.00
2023-09-20T19:27:49.268Z,52.94
2023-09-20T19:30:19.820Z,53.14
2023-09-20T19:32:48.656Z,53.15
2023-09-20T19:35:18.640Z,53.29
2023-09-20T19:37:47.059Z,53.38
2023-09-20T19:40:21.203Z,53.73
2023-09-20T19:42:51.935Z,53.90
2023-09-20T19:45:21.463Z,53.93
2023-09-20T19:47:49.860Z,54.17
2023-09-20T19:50:20.368Z,54.25
2023-09-20T19:52:49.310Z,54.35
2023-09-20T19:55:26.177Z,54.53
2023-09-20T19:58:54.712Z,54.35
2023-09-20T20:01:40.807Z,54.68
2023-09-20T20:04:09.944Z,54.69
2023-09-20T20:07:21.413Z,54.79
2023-09-20T20:09:54.470Z,55.10
2023-09-20T20:12:22.813Z,55.03
2023-09-20T20:14:50.740Z,55.02
2023-09-20T20:18:19.081Z,55.11
2023-09-20T20:21:27.607Z,55.53
2023-09-20T20:24:25.871Z,55.68
2023-09-20T20:26:54.727Z,55.73
2023-09-20T20:29:22.781Z,55.58
2023-09-20T20:31:50.896Z,55.48
2023-09-20T20:34:18.879Z,55.36
2023-09-20T20:36:50.146Z,55.41
2023-09-20T20:39:18.248Z,55.75
2023-09-20T20:41:49.346Z,55.79
2023-09-20T20:44:17.987Z,56.09
2023-09-20T20:47:04.392Z,56.27
2023-09-20T20:49:32.316Z,56.47
2023-09-20T20:52:01.227Z,56.50
2023-09-20T20:54:31.382Z,56.62
2023-09-20T20:56:59.864Z,56.73
2023-09-20T20:59:38.726Z,57.03
2023-09-20T21:02:08.727Z,57.24
2023-09-20T21:04:37.757Z,57.39
2023-09-20T21:07:27.808Z,57.73
2023-09-20T21:09:55.855Z,58.05
2023-09-20T21:12:31.853Z,58.35
2023-09-20T21:15:02.741Z,58.46
2023-09-20T21:17:50.626Z,58.65
2023-09-20T21:20:24.466Z,58.92
2023-09-20T21:22:55.201Z,59.23
2023-09-20T21:25:24.977Z,59.41
2023-09-20T21:28:56.372Z,59.37
2023-09-20T21:31:45.368Z,59.87
2023-09-20T21:34:13.356Z,60.09
2023-09-20T21:36:57.908Z,60.15
2023-09-20T21:40:06.393Z,60.40
2023-09-20T21:42:35.947Z,60.41
2023-09-20T21:45:07.861Z,60.58
2023-09-20T21:47:36.044Z,60.69
2023-09-20T21:50:30.194Z,60.71
2023-09-20T21:52:59.915Z,60.90
2023-09-20T21:55:32.119Z,60.95
2023-09-20T21:58:00.288Z,60.86
2023-09-20T22:00:28.291Z,60.91
2023-09-20T22:03:06.519Z,61.14
2023-09-20T22:05:35.746Z,61.37
2023-09-20T22:08:12.134Z,61.47
2023-09-20T22:10:44.192Z,61.79
2023-09-20T22:13:15.539Z,61.69
2023-09-20T22:15:46.470Z,61.89
2023-09-20T22:19:12.020Z,61.66
2023-09-20T22:21:40.764Z,61.78
2023-09-20T22:24:10.620Z,61.76
2023-09-20T22:26:38.890Z,61.87
2023-09-20T22:30:28.085Z,61.88
2023-09-20T22:34:16.576Z,62.14
2023-09-20T22:36:53.643Z,62.18
2023-09-20T22:39:23.797Z,62.10
2023-09-20T22:41:52.283Z,61.99
2023-09-20T22:45:19.239Z,62.05
2023-09-20T22:47:49.108Z,62.23
2023-09-20T22:50:24.485Z,62.58
2023-09-20T22:53:56.270Z,62.46
2023-09-20T22:57:13.701Z,62.71
2023-09-20T23:00:23.245Z,62.82
2023-09-20T23:03:15.890Z,62.81
2023-09-20T23:05:47.027Z,62.65
2023-09-20T23:08:15.927Z,62.65
2023-09-20T23:10:46.744Z,62.55
2023-09-20T23:13:52.613Z,62.63
2023-09-20T23:16:37.596Z,62.84
2023-09-20T23:19:06.690Z,63.01
2023-09-20T23:21:35.666Z,63.05
2023-09-20T23:24:04.361Z,63.11
2023-09-20T23:26:37.517Z,63.45
2023-09-20T23:29:08.702Z,63.77
2023-09-20T23:32:02.073Z,63.75
2023-09-20T23:35:27.359Z,63.85
2023-09-20T23:37:58.609Z,64.36
2023-09-20T23:40:27.578Z,64.25
2023-09-20T23:43:06.089Z,64.38
2023-09-20T23:45:37.062Z,64.30
2023-09-20T23:48:06.314Z,64.43
2023-09-20T23:50:34.661Z,64.43
2023-09-20T23:53:03.450Z,64.49
2023-09-20T23:55:47.556Z,64.65
2023-09-20T23:58:17.006Z,64.60
